sensor_id;sensor_type;location;lat;lon;timestamp;P1;durP1;ratioP1;P2;durP2;ratioP2
10641;SDS011;5369;49.586;8.646;2023-07-31T00:00:39;3.57;;;1.70;;
10641;SDS011;5369;49.586;8.646;2023-07-31T00:03:05;4.10;;;1.67;;
10641;SDS011;5369;49.586;8.646;2023-07-31T00:05:31;2.27;;;1.60;;
10641;SDS011;5369;49.586;8.646;2023-07-31T00:07:57;3.20;;;1.60;;
10641;SDS011;5369;49.586;8.646;2023-07-31T00:10:24;4.40;;;2.00;;
10641;SDS011;5369;49.586;8.646;2023-07-31T00:12:50;3.90;;;1.83;;
10641;SDS011;5369;49.586;8.646;2023-07-31T00:15:16;3.73;;;1.87;;
10641;SDS011;5369;49.586;8.646;2023-07-31T00:17:42;4.53;;;1.80;;
10641;SDS011;5369;49.586;8.646;2023-07-31T00:20:08;4.17;;;1.70;;
10641;SDS011;5369;49.586;8.646;2023-07-31T00:22:35;3.33;;;1.80;;
10641;SDS011;5369;49.586;8.646;2023-07-31T00:25:01;3.80;;;1.80;;
10641;SDS011;5369;49.586;8.646;2023-07-31T00:27:27;3.53;;;1.63;;
10641;SDS011;5369;49.586;8.646;2023-07-31T00:29:54;4.87;;;1.90;;
10641;SDS011;5369;49.586;8.646;2023-07-31T00:32:20;2.87;;;1.80;;
10641;SDS011;5369;49.586;8.646;2023-07-31T00:34:46;2.93;;;1.70;;
10641;SDS011;5369;49.586;8.646;2023-07-31T00:37:12;3.90;;;1.83;;
10641;SDS011;5369;49.586;8.646;2023-07-31T00:39:40;3.00;;;1.60;;
10641;SDS011;5369;49.586;8.646;2023-07-31T00:42:06;4.70;;;2.10;;
10641;SDS011;5369;49.586;8.646;2023-07-31T00:44:32;5.03;;;2.20;;
10641;SDS011;5369;49.586;8.646;2023-07-31T00:46:59;4.47;;;2.03;;
10641;SDS011;5369;49.586;8.646;2023-07-31T00:49:25;4.30;;;1.87;;
10641;SDS011;5369;49.586;8.646;2023-07-31T00:51:52;5.27;;;2.40;;
10641;SDS011;5369;49.586;8.646;2023-07-31T00:54:18;3.60;;;1.83;;
10641;SDS011;5369;49.586;8.646;2023-07-31T00:56:45;4.03;;;1.90;;
10641;SDS011;5369;49.586;8.646;2023-07-31T00:59:13;5.73;;;2.03;;
10641;SDS011;5369;49.586;8.646;2023-07-31T01:01:40;4.50;;;1.90;;
10641;SDS011;5369;49.586;8.646;2023-07-31T01:04:06;2.73;;;1.87;;
10641;SDS011;5369;49.586;8.646;2023-07-31T01:11:53;4.63;;;1.70;;
10641;SDS011;5369;49.586;8.646;2023-07-31T01:14:22;3.60;;;1.90;;
10641;SDS011;5369;49.586;8.646;2023-07-31T01:16:48;4.47;;;2.00;;
10641;SDS011;5369;49.586;8.646;2023-07-31T01:19:15;3.33;;;1.97;;
10641;SDS011;5369;49.586;8.646;2023-07-31T01:21:55;3.93;;;1.93;;
10641;SDS011;5369;49.586;8.646;2023-07-31T01:24:27;3.17;;;1.80;;
10641;SDS011;5369;49.586;8.646;2023-07-31T01:26:58;4.67;;;1.87;;
10641;SDS011;5369;49.586;8.646;2023-07-31T01:29:37;4.00;;;1.90;;
10641;SDS011;5369;49.586;8.646;2023-07-31T01:32:04;3.33;;;1.80;;
10641;SDS011;5369;49.586;8.646;2023-07-31T01:34:31;4.63;;;1.80;;
10641;SDS011;5369;49.586;8.646;2023-07-31T01:36:58;3.87;;;1.70;;
10641;SDS011;5369;49.586;8.646;2023-07-31T01:39:24;4.37;;;2.00;;
10641;SDS011;5369;49.586;8.646;2023-07-31T01:41:51;3.67;;;1.80;;
10641;SDS011;5369;49.586;8.646;2023-07-31T01:44:17;3.83;;;2.10;;
10641;SDS011;5369;49.586;8.646;2023-07-31T01:46:43;5.03;;;2.10;;
10641;SDS011;5369;49.586;8.646;2023-07-31T01:49:09;4.80;;;1.90;;
10641;SDS011;5369;49.586;8.646;2023-07-31T01:51:35;2.90;;;1.90;;
10641;SDS011;5369;49.586;8.646;2023-07-31T01:54:02;4.77;;;1.90;;
10641;SDS011;5369;49.586;8.646;2023-07-31T01:56:28;3.00;;;1.80;;
10641;SDS011;5369;49.586;8.646;2023-07-31T01:58:54;5.30;;;1.90;;
10641;SDS011;5369;49.586;8.646;2023-07-31T02:01:20;4.87;;;2.20;;
10641;SDS011;5369;49.586;8.646;2023-07-31T02:03:47;3.77;;;2.30;;
10641;SDS011;5369;49.586;8.646;2023-07-31T02:06:13;4.83;;;2.10;;
10641;SDS011;5369;49.586;8.646;2023-07-31T02:08:40;7.40;;;2.30;;
10641;SDS011;5369;49.586;8.646;2023-07-31T02:11:06;4.40;;;2.03;;
10641;SDS011;5369;49.586;8.646;2023-07-31T02:13:32;5.43;;;2.13;;
10641;SDS011;5369;49.586;8.646;2023-07-31T02:15:58;2.87;;;1.83;;
10641;SDS011;5369;49.586;8.646;2023-07-31T02:18:24;4.73;;;2.20;;
10641;SDS011;5369;49.586;8.646;2023-07-31T02:20:51;5.00;;;2.27;;
10641;SDS011;5369;49.586;8.646;2023-07-31T02:23:17;4.83;;;2.10;;
10641;SDS011;5369;49.586;8.646;2023-07-31T02:25:44;3.30;;;1.73;;
10641;SDS011;5369;49.586;8.646;2023-07-31T02:28:10;3.90;;;2.13;;
10641;SDS011;5369;49.586;8.646;2023-07-31T02:30:36;3.63;;;2.23;;
10641;SDS011;5369;49.586;8.646;2023-07-31T02:33:03;5.67;;;2.10;;
10641;SDS011;5369;49.586;8.646;2023-07-31T02:35:29;4.23;;;1.83;;
10641;SDS011;5369;49.586;8.646;2023-07-31T02:37:55;4.00;;;1.90;;
10641;SDS011;5369;49.586;8.646;2023-07-31T02:40:22;5.10;;;2.37;;
10641;SDS011;5369;49.586;8.646;2023-07-31T02:42:48;3.70;;;1.87;;
10641;SDS011;5369;49.586;8.646;2023-07-31T02:45:15;4.43;;;2.10;;
10641;SDS011;5369;49.586;8.646;2023-07-31T02:47:41;4.17;;;2.00;;
10641;SDS011;5369;49.586;8.646;2023-07-31T02:50:07;4.33;;;2.00;;
10641;SDS011;5369;49.586;8.646;2023-07-31T02:52:33;3.90;;;1.90;;
10641;SDS011;5369;49.586;8.646;2023-07-31T02:54:59;4.43;;;1.70;;
10641;SDS011;5369;49.586;8.646;2023-07-31T02:57:25;4.60;;;1.80;;
10641;SDS011;5369;49.586;8.646;2023-07-31T02:59:51;3.83;;;1.90;;
10641;SDS011;5369;49.586;8.646;2023-07-31T03:02:18;7.20;;;2.43;;
10641;SDS011;5369;49.586;8.646;2023-07-31T03:04:44;4.90;;;2.00;;
10641;SDS011;5369;49.586;8.646;2023-07-31T03:07:10;4.80;;;2.20;;
10641;SDS011;5369;49.586;8.646;2023-07-31T03:09:36;4.73;;;2.23;;
10641;SDS011;5369;49.586;8.646;2023-07-31T03:12:03;5.50;;;2.10;;
10641;SDS011;5369;49.586;8.646;2023-07-31T03:14:29;5.20;;;2.17;;
10641;SDS011;5369;49.586;8.646;2023-07-31T03:16:55;3.33;;;1.93;;
10641;SDS011;5369;49.586;8.646;2023-07-31T03:19:21;4.20;;;2.10;;
10641;SDS011;5369;49.586;8.646;2023-07-31T03:21:48;6.07;;;2.10;;
10641;SDS011;5369;49.586;8.646;2023-07-31T03:24:14;3.57;;;2.00;;
10641;SDS011;5369;49.586;8.646;2023-07-31T03:26:40;4.50;;;2.17;;
10641;SDS011;5369;49.586;8.646;2023-07-31T03:29:07;3.47;;;2.20;;
10641;SDS011;5369;49.586;8.646;2023-07-31T03:31:33;3.63;;;2.17;;
10641;SDS011;5369;49.586;8.646;2023-07-31T03:33:59;3.83;;;2.10;;
10641;SDS011;5369;49.586;8.646;2023-07-31T03:36:26;2.93;;;2.00;;
10641;SDS011;5369;49.586;8.646;2023-07-31T03:38:52;4.73;;;2.20;;
10641;SDS011;5369;49.586;8.646;2023-07-31T03:41:19;4.30;;;2.30;;
10641;SDS011;5369;49.586;8.646;2023-07-31T03:43:46;5.47;;;2.00;;
10641;SDS011;5369;49.586;8.646;2023-07-31T03:46:12;6.70;;;2.33;;
10641;SDS011;5369;49.586;8.646;2023-07-31T03:48:38;5.80;;;2.30;;
10641;SDS011;5369;49.586;8.646;2023-07-31T03:51:04;6.37;;;2.23;;
10641;SDS011;5369;49.586;8.646;2023-07-31T03:53:30;5.20;;;2.50;;
10641;SDS011;5369;49.586;8.646;2023-07-31T03:55:57;4.93;;;2.70;;
10641;SDS011;5369;49.586;8.646;2023-07-31T03:58:23;4.40;;;2.30;;
10641;SDS011;5369;49.586;8.646;2023-07-31T04:00:49;4.27;;;2.33;;
10641;SDS011;5369;49.586;8.646;2023-07-31T04:03:15;4.30;;;2.30;;
10641;SDS011;5369;49.586;8.646;2023-07-31T04:05:41;3.67;;;2.13;;
10641;SDS011;5369;49.586;8.646;2023-07-31T04:08:08;3.87;;;2.20;;
10641;SDS011;5369;49.586;8.646;2023-07-31T04:10:34;6.77;;;2.10;;
10641;SDS011;5369;49.586;8.646;2023-07-31T04:13:00;3.07;;;1.93;;
10641;SDS011;5369;49.586;8.646;2023-07-31T04:15:26;4.50;;;2.07;;
10641;SDS011;5369;49.586;8.646;2023-07-31T04:17:52;4.30;;;2.23;;
10641;SDS011;5369;49.586;8.646;2023-07-31T04:20:18;5.70;;;2.53;;
10641;SDS011;5369;49.586;8.646;2023-07-31T04:22:44;2.83;;;2.10;;
10641;SDS011;5369;49.586;8.646;2023-07-31T04:25:11;4.93;;;2.47;;
10641;SDS011;5369;49.586;8.646;2023-07-31T04:27:37;4.60;;;2.20;;
10641;SDS011;5369;49.586;8.646;2023-07-31T04:30:03;4.63;;;2.30;;
10641;SDS011;5369;49.586;8.646;2023-07-31T04:32:29;3.77;;;2.10;;
10641;SDS011;5369;49.586;8.646;2023-07-31T04:34:55;3.67;;;2.13;;
10641;SDS011;5369;49.586;8.646;2023-07-31T04:37:22;4.47;;;2.20;;
10641;SDS011;5369;49.586;8.646;2023-07-31T04:39:48;3.53;;;2.10;;
10641;SDS011;5369;49.586;8.646;2023-07-31T04:42:14;6.37;;;2.20;;
10641;SDS011;5369;49.586;8.646;2023-07-31T04:44:40;4.37;;;2.37;;
10641;SDS011;5369;49.586;8.646;2023-07-31T04:47:06;5.17;;;2.37;;
10641;SDS011;5369;49.586;8.646;2023-07-31T04:49:32;4.40;;;2.53;;
10641;SDS011;5369;49.586;8.646;2023-07-31T04:51:58;2.97;;;2.20;;
10641;SDS011;5369;49.586;8.646;2023-07-31T04:54:25;4.47;;;2.20;;
10641;SDS011;5369;49.586;8.646;2023-07-31T04:56:51;4.63;;;2.50;;
10641;SDS011;5369;49.586;8.646;2023-07-31T04:59:18;7.90;;;2.30;;
10641;SDS011;5369;49.586;8.646;2023-07-31T05:01:44;5.87;;;2.40;;
10641;SDS011;5369;49.586;8.646;2023-07-31T05:04:12;5.33;;;2.30;;
10641;SDS011;5369;49.586;8.646;2023-07-31T05:06:39;4.80;;;2.47;;
10641;SDS011;5369;49.586;8.646;2023-07-31T05:09:06;2.87;;;2.13;;
10641;SDS011;5369;49.586;8.646;2023-07-31T05:11:32;4.03;;;2.10;;
10641;SDS011;5369;49.586;8.646;2023-07-31T05:13:58;4.23;;;2.27;;
10641;SDS011;5369;49.586;8.646;2023-07-31T05:16:24;7.57;;;2.63;;
10641;SDS011;5369;49.586;8.646;2023-07-31T05:18:50;5.63;;;2.23;;
10641;SDS011;5369;49.586;8.646;2023-07-31T05:21:16;3.53;;;2.20;;
10641;SDS011;5369;49.586;8.646;2023-07-31T05:23:42;5.87;;;2.80;;
10641;SDS011;5369;49.586;8.646;2023-07-31T05:26:09;6.40;;;2.50;;
10641;SDS011;5369;49.586;8.646;2023-07-31T05:28:35;4.20;;;2.40;;
10641;SDS011;5369;49.586;8.646;2023-07-31T05:31:04;4.67;;;2.40;;
10641;SDS011;5369;49.586;8.646;2023-07-31T05:33:31;6.73;;;2.10;;
10641;SDS011;5369;49.586;8.646;2023-07-31T05:35:58;7.83;;;2.50;;
10641;SDS011;5369;49.586;8.646;2023-07-31T05:38:24;5.90;;;2.57;;
10641;SDS011;5369;49.586;8.646;2023-07-31T05:40:50;5.13;;;2.10;;
10641;SDS011;5369;49.586;8.646;2023-07-31T05:43:16;5.40;;;2.43;;
10641;SDS011;5369;49.586;8.646;2023-07-31T05:45:42;4.50;;;2.50;;
10641;SDS011;5369;49.586;8.646;2023-07-31T05:48:09;5.10;;;2.00;;
10641;SDS011;5369;49.586;8.646;2023-07-31T05:50:35;5.70;;;2.73;;
10641;SDS011;5369;49.586;8.646;2023-07-31T05:53:04;6.43;;;2.50;;
10641;SDS011;5369;49.586;8.646;2023-07-31T05:55:30;6.37;;;2.50;;
10641;SDS011;5369;49.586;8.646;2023-07-31T05:57:56;4.77;;;2.40;;
10641;SDS011;5369;49.586;8.646;2023-07-31T06:00:22;5.17;;;2.40;;
10641;SDS011;5369;49.586;8.646;2023-07-31T06:02:48;7.00;;;2.53;;
10641;SDS011;5369;49.586;8.646;2023-07-31T06:05:14;4.87;;;2.93;;
10641;SDS011;5369;49.586;8.646;2023-07-31T06:07:41;5.33;;;2.40;;
10641;SDS011;5369;49.586;8.646;2023-07-31T06:10:07;4.50;;;2.30;;
10641;SDS011;5369;49.586;8.646;2023-07-31T06:12:33;5.23;;;2.50;;
10641;SDS011;5369;49.586;8.646;2023-07-31T06:14:59;4.77;;;2.50;;
10641;SDS011;5369;49.586;8.646;2023-07-31T06:17:26;4.67;;;2.70;;
10641;SDS011;5369;49.586;8.646;2023-07-31T06:19:52;4.63;;;2.50;;
10641;SDS011;5369;49.586;8.646;2023-07-31T06:22:18;4.83;;;2.53;;
10641;SDS011;5369;49.586;8.646;2023-07-31T06:24:46;5.97;;;2.67;;
10641;SDS011;5369;49.586;8.646;2023-07-31T06:27:12;5.97;;;2.50;;
10641;SDS011;5369;49.586;8.646;2023-07-31T06:29:38;4.97;;;2.57;;
10641;SDS011;5369;49.586;8.646;2023-07-31T06:32:04;4.47;;;2.47;;
10641;SDS011;5369;49.586;8.646;2023-07-31T06:34:30;5.03;;;2.47;;
10641;SDS011;5369;49.586;8.646;2023-07-31T06:36:56;5.97;;;2.60;;
10641;SDS011;5369;49.586;8.646;2023-07-31T06:39:22;5.43;;;2.67;;
10641;SDS011;5369;49.586;8.646;2023-07-31T06:41:49;5.73;;;2.73;;
10641;SDS011;5369;49.586;8.646;2023-07-31T06:44:15;4.43;;;2.67;;
10641;SDS011;5369;49.586;8.646;2023-07-31T06:46:42;5.80;;;2.57;;
10641;SDS011;5369;49.586;8.646;2023-07-31T06:49:08;5.27;;;2.20;;
10641;SDS011;5369;49.586;8.646;2023-07-31T06:51:34;3.80;;;2.53;;
10641;SDS011;5369;49.586;8.646;2023-07-31T06:54:01;4.23;;;2.20;;
10641;SDS011;5369;49.586;8.646;2023-07-31T06:56:27;5.27;;;2.67;;
10641;SDS011;5369;49.586;8.646;2023-07-31T06:58:53;4.57;;;2.20;;
10641;SDS011;5369;49.586;8.646;2023-07-31T07:01:20;5.33;;;2.47;;
10641;SDS011;5369;49.586;8.646;2023-07-31T07:03:46;6.47;;;2.60;;
10641;SDS011;5369;49.586;8.646;2023-07-31T07:06:12;4.80;;;2.60;;
10641;SDS011;5369;49.586;8.646;2023-07-31T07:08:38;6.57;;;3.00;;
10641;SDS011;5369;49.586;8.646;2023-07-31T07:11:04;6.43;;;2.57;;
10641;SDS011;5369;49.586;8.646;2023-07-31T07:13:30;6.80;;;2.97;;
10641;SDS011;5369;49.586;8.646;2023-07-31T07:15:56;5.43;;;2.30;;
10641;SDS011;5369;49.586;8.646;2023-07-31T07:18:22;4.17;;;2.60;;
10641;SDS011;5369;49.586;8.646;2023-07-31T07:20:49;5.40;;;2.50;;
10641;SDS011;5369;49.586;8.646;2023-07-31T07:23:16;5.20;;;2.30;;
10641;SDS011;5369;49.586;8.646;2023-07-31T07:25:43;4.77;;;2.57;;
10641;SDS011;5369;49.586;8.646;2023-07-31T07:28:09;5.80;;;2.60;;
10641;SDS011;5369;49.586;8.646;2023-07-31T07:30:36;4.30;;;2.57;;
10641;SDS011;5369;49.586;8.646;2023-07-31T07:33:02;6.17;;;2.60;;
10641;SDS011;5369;49.586;8.646;2023-07-31T07:35:28;4.67;;;2.40;;
10641;SDS011;5369;49.586;8.646;2023-07-31T07:37:54;5.37;;;2.40;;
10641;SDS011;5369;49.586;8.646;2023-07-31T07:40:21;5.97;;;2.30;;
10641;SDS011;5369;49.586;8.646;2023-07-31T07:42:48;5.77;;;2.70;;
10641;SDS011;5369;49.586;8.646;2023-07-31T07:45:14;7.73;;;2.83;;
10641;SDS011;5369;49.586;8.646;2023-07-31T07:47:40;6.30;;;2.80;;
10641;SDS011;5369;49.586;8.646;2023-07-31T07:50:07;4.73;;;2.40;;
10641;SDS011;5369;49.586;8.646;2023-07-31T07:52:33;5.20;;;2.30;;
10641;SDS011;5369;49.586;8.646;2023-07-31T07:55:00;3.43;;;2.40;;
10641;SDS011;5369;49.586;8.646;2023-07-31T07:57:26;4.97;;;2.17;;
10641;SDS011;5369;49.586;8.646;2023-07-31T07:59:53;5.33;;;2.60;;
10641;SDS011;5369;49.586;8.646;2023-07-31T08:02:19;5.80;;;2.40;;
10641;SDS011;5369;49.586;8.646;2023-07-31T08:04:45;4.67;;;2.63;;
10641;SDS011;5369;49.586;8.646;2023-07-31T08:07:11;4.70;;;2.50;;
10641;SDS011;5369;49.586;8.646;2023-07-31T08:09:38;4.30;;;2.30;;
10641;SDS011;5369;49.586;8.646;2023-07-31T08:12:04;4.63;;;2.50;;
10641;SDS011;5369;49.586;8.646;2023-07-31T08:14:31;4.97;;;2.77;;
10641;SDS011;5369;49.586;8.646;2023-07-31T08:16:57;5.37;;;2.53;;
10641;SDS011;5369;49.586;8.646;2023-07-31T08:19:23;5.57;;;2.63;;
10641;SDS011;5369;49.586;8.646;2023-07-31T08:21:49;5.33;;;2.57;;
10641;SDS011;5369;49.586;8.646;2023-07-31T08:24:15;5.33;;;2.60;;
10641;SDS011;5369;49.586;8.646;2023-07-31T08:26:42;6.77;;;2.40;;
10641;SDS011;5369;49.586;8.646;2023-07-31T08:29:08;6.00;;;2.80;;
10641;SDS011;5369;49.586;8.646;2023-07-31T08:31:34;4.93;;;2.37;;
10641;SDS011;5369;49.586;8.646;2023-07-31T08:34:00;7.10;;;2.50;;
10641;SDS011;5369;49.586;8.646;2023-07-31T08:36:27;5.33;;;2.50;;
10641;SDS011;5369;49.586;8.646;2023-07-31T08:38:53;5.03;;;2.60;;
10641;SDS011;5369;49.586;8.646;2023-07-31T08:41:19;5.47;;;2.70;;
10641;SDS011;5369;49.586;8.646;2023-07-31T08:43:46;5.93;;;2.77;;
10641;SDS011;5369;49.586;8.646;2023-07-31T08:46:12;7.93;;;3.10;;
10641;SDS011;5369;49.586;8.646;2023-07-31T08:48:41;3.83;;;2.50;;
10641;SDS011;5369;49.586;8.646;2023-07-31T08:51:07;7.40;;;2.70;;
10641;SDS011;5369;49.586;8.646;2023-07-31T08:53:33;4.83;;;2.50;;
10641;SDS011;5369;49.586;8.646;2023-07-31T08:55:59;3.80;;;2.30;;
10641;SDS011;5369;49.586;8.646;2023-07-31T08:58:27;5.17;;;2.43;;
10641;SDS011;5369;49.586;8.646;2023-07-31T09:00:53;4.80;;;2.70;;
10641;SDS011;5369;49.586;8.646;2023-07-31T09:03:21;6.27;;;2.70;;
10641;SDS011;5369;49.586;8.646;2023-07-31T09:05:49;5.73;;;2.67;;
10641;SDS011;5369;49.586;8.646;2023-07-31T09:08:17;5.23;;;2.53;;
10641;SDS011;5369;49.586;8.646;2023-07-31T09:10:44;4.67;;;2.73;;
10641;SDS011;5369;49.586;8.646;2023-07-31T09:13:16;4.80;;;2.60;;
10641;SDS011;5369;49.586;8.646;2023-07-31T09:15:43;5.70;;;2.50;;
10641;SDS011;5369;49.586;8.646;2023-07-31T09:18:10;3.67;;;2.77;;
10641;SDS011;5369;49.586;8.646;2023-07-31T09:20:36;6.70;;;2.70;;
10641;SDS011;5369;49.586;8.646;2023-07-31T09:23:06;4.43;;;2.67;;
10641;SDS011;5369;49.586;8.646;2023-07-31T09:25:33;6.93;;;2.47;;
10641;SDS011;5369;49.586;8.646;2023-07-31T09:28:03;4.87;;;2.77;;
10641;SDS011;5369;49.586;8.646;2023-07-31T09:30:29;5.47;;;2.83;;
10641;SDS011;5369;49.586;8.646;2023-07-31T09:33:05;6.87;;;3.20;;
10641;SDS011;5369;49.586;8.646;2023-07-31T09:35:33;5.27;;;2.70;;
10641;SDS011;5369;49.586;8.646;2023-07-31T09:38:01;3.67;;;2.30;;
10641;SDS011;5369;49.586;8.646;2023-07-31T09:40:29;10.67;;;3.00;;
10641;SDS011;5369;49.586;8.646;2023-07-31T09:42:56;6.60;;;2.73;;
10641;SDS011;5369;49.586;8.646;2023-07-31T09:45:23;7.40;;;3.10;;
10641;SDS011;5369;49.586;8.646;2023-07-31T09:47:50;6.47;;;2.77;;
10641;SDS011;5369;49.586;8.646;2023-07-31T09:50:16;4.40;;;2.77;;
10641;SDS011;5369;49.586;8.646;2023-07-31T09:52:42;4.20;;;2.77;;
10641;SDS011;5369;49.586;8.646;2023-07-31T09:55:09;5.63;;;2.80;;
10641;SDS011;5369;49.586;8.646;2023-07-31T09:57:39;4.30;;;2.70;;
10641;SDS011;5369;49.586;8.646;2023-07-31T10:00:10;6.10;;;2.90;;
10641;SDS011;5369;49.586;8.646;2023-07-31T10:02:40;4.77;;;2.80;;
10641;SDS011;5369;49.586;8.646;2023-07-31T10:05:07;4.77;;;2.60;;
10641;SDS011;5369;49.586;8.646;2023-07-31T10:07:37;5.23;;;2.80;;
10641;SDS011;5369;49.586;8.646;2023-07-31T10:10:04;7.00;;;2.80;;
10641;SDS011;5369;49.586;8.646;2023-07-31T10:12:32;9.53;;;3.03;;
10641;SDS011;5369;49.586;8.646;2023-07-31T10:14:58;5.77;;;3.00;;
10641;SDS011;5369;49.586;8.646;2023-07-31T10:17:25;6.83;;;3.20;;
10641;SDS011;5369;49.586;8.646;2023-07-31T10:19:52;7.50;;;3.50;;
10641;SDS011;5369;49.586;8.646;2023-07-31T10:22:19;5.87;;;3.00;;
10641;SDS011;5369;49.586;8.646;2023-07-31T10:24:46;4.90;;;2.77;;
10641;SDS011;5369;49.586;8.646;2023-07-31T10:27:12;4.33;;;2.67;;
10641;SDS011;5369;49.586;8.646;2023-07-31T10:29:38;6.73;;;3.00;;
10641;SDS011;5369;49.586;8.646;2023-07-31T10:32:06;5.80;;;3.00;;
10641;SDS011;5369;49.586;8.646;2023-07-31T10:34:35;5.43;;;3.13;;
10641;SDS011;5369;49.586;8.646;2023-07-31T10:39:57;5.90;;;3.10;;
10641;SDS011;5369;49.586;8.646;2023-07-31T10:42:27;6.93;;;2.90;;
10641;SDS011;5369;49.586;8.646;2023-07-31T10:45:04;4.33;;;2.70;;
10641;SDS011;5369;49.586;8.646;2023-07-31T10:47:36;6.27;;;3.13;;
10641;SDS011;5369;49.586;8.646;2023-07-31T10:50:19;6.37;;;3.00;;
10641;SDS011;5369;49.586;8.646;2023-07-31T10:52:49;4.97;;;3.10;;
10641;SDS011;5369;49.586;8.646;2023-07-31T10:55:29;7.13;;;2.97;;
10641;SDS011;5369;49.586;8.646;2023-07-31T10:57:56;5.23;;;3.00;;
10641;SDS011;5369;49.586;8.646;2023-07-31T11:00:27;5.40;;;3.00;;
10641;SDS011;5369;49.586;8.646;2023-07-31T11:03:06;5.03;;;3.20;;
10641;SDS011;5369;49.586;8.646;2023-07-31T11:08:27;5.27;;;3.20;;
10641;SDS011;5369;49.586;8.646;2023-07-31T11:13:31;5.20;;;2.90;;
10641;SDS011;5369;49.586;8.646;2023-07-31T11:15:57;6.10;;;2.93;;
10641;SDS011;5369;49.586;8.646;2023-07-31T11:18:24;4.63;;;2.90;;
10641;SDS011;5369;49.586;8.646;2023-07-31T11:20:52;5.77;;;3.00;;
10641;SDS011;5369;49.586;8.646;2023-07-31T11:23:19;6.40;;;3.10;;
10641;SDS011;5369;49.586;8.646;2023-07-31T11:25:45;6.00;;;3.10;;
10641;SDS011;5369;49.586;8.646;2023-07-31T11:28:12;6.13;;;3.00;;
10641;SDS011;5369;49.586;8.646;2023-07-31T11:30:40;5.07;;;2.80;;
10641;SDS011;5369;49.586;8.646;2023-07-31T11:33:06;7.47;;;3.17;;
10641;SDS011;5369;49.586;8.646;2023-07-31T11:35:33;8.27;;;3.10;;
10641;SDS011;5369;49.586;8.646;2023-07-31T11:38:00;6.27;;;3.10;;
10641;SDS011;5369;49.586;8.646;2023-07-31T11:40:26;5.20;;;3.00;;
10641;SDS011;5369;49.586;8.646;2023-07-31T11:42:56;3.87;;;2.60;;
10641;SDS011;5369;49.586;8.646;2023-07-31T11:45:24;3.87;;;2.90;;
10641;SDS011;5369;49.586;8.646;2023-07-31T11:47:51;5.80;;;3.40;;
10641;SDS011;5369;49.586;8.646;2023-07-31T11:50:17;4.97;;;3.10;;
10641;SDS011;5369;49.586;8.646;2023-07-31T11:52:44;5.77;;;3.00;;
10641;SDS011;5369;49.586;8.646;2023-07-31T11:55:11;5.33;;;2.87;;
10641;SDS011;5369;49.586;8.646;2023-07-31T11:57:38;5.67;;;2.90;;
10641;SDS011;5369;49.586;8.646;2023-07-31T12:00:06;7.70;;;3.00;;
10641;SDS011;5369;49.586;8.646;2023-07-31T12:02:33;5.33;;;2.97;;
10641;SDS011;5369;49.586;8.646;2023-07-31T12:04:59;6.73;;;3.40;;
10641;SDS011;5369;49.586;8.646;2023-07-31T12:07:25;7.63;;;3.10;;
10641;SDS011;5369;49.586;8.646;2023-07-31T12:09:52;4.53;;;2.83;;
10641;SDS011;5369;49.586;8.646;2023-07-31T12:12:20;5.40;;;2.80;;
10641;SDS011;5369;49.586;8.646;2023-07-31T12:14:46;7.37;;;3.13;;
10641;SDS011;5369;49.586;8.646;2023-07-31T12:17:12;4.87;;;2.97;;
10641;SDS011;5369;49.586;8.646;2023-07-31T12:19:40;5.10;;;3.00;;
10641;SDS011;5369;49.586;8.646;2023-07-31T12:22:15;4.80;;;2.80;;
10641;SDS011;5369;49.586;8.646;2023-07-31T12:24:42;5.53;;;2.57;;
10641;SDS011;5369;49.586;8.646;2023-07-31T12:27:14;7.97;;;3.20;;
10641;SDS011;5369;49.586;8.646;2023-07-31T12:29:41;7.07;;;2.70;;
10641;SDS011;5369;49.586;8.646;2023-07-31T12:32:20;5.57;;;2.90;;
10641;SDS011;5369;49.586;8.646;2023-07-31T12:34:46;7.30;;;3.10;;
10641;SDS011;5369;49.586;8.646;2023-07-31T12:37:12;6.07;;;3.13;;
10641;SDS011;5369;49.586;8.646;2023-07-31T12:39:39;4.23;;;2.93;;
10641;SDS011;5369;49.586;8.646;2023-07-31T12:42:05;4.00;;;2.60;;
10641;SDS011;5369;49.586;8.646;2023-07-31T12:44:31;6.47;;;3.03;;
10641;SDS011;5369;49.586;8.646;2023-07-31T12:46:57;4.63;;;3.03;;
10641;SDS011;5369;49.586;8.646;2023-07-31T12:49:24;5.73;;;3.13;;
10641;SDS011;5369;49.586;8.646;2023-07-31T12:51:50;4.70;;;2.87;;
10641;SDS011;5369;49.586;8.646;2023-07-31T12:54:16;6.77;;;2.93;;
10641;SDS011;5369;49.586;8.646;2023-07-31T12:56:42;7.83;;;3.33;;
10641;SDS011;5369;49.586;8.646;2023-07-31T12:59:08;6.63;;;3.00;;
10641;SDS011;5369;49.586;8.646;2023-07-31T13:01:34;5.93;;;3.13;;
10641;SDS011;5369;49.586;8.646;2023-07-31T13:04:01;6.20;;;2.87;;
10641;SDS011;5369;49.586;8.646;2023-07-31T13:06:27;5.33;;;2.90;;
10641;SDS011;5369;49.586;8.646;2023-07-31T13:08:53;6.67;;;2.83;;
10641;SDS011;5369;49.586;8.646;2023-07-31T13:11:19;4.47;;;2.90;;
10641;SDS011;5369;49.586;8.646;2023-07-31T13:13:45;6.63;;;2.90;;
10641;SDS011;5369;49.586;8.646;2023-07-31T13:16:11;6.37;;;3.00;;
10641;SDS011;5369;49.586;8.646;2023-07-31T13:18:37;5.80;;;2.97;;
10641;SDS011;5369;49.586;8.646;2023-07-31T13:21:03;3.53;;;2.83;;
10641;SDS011;5369;49.586;8.646;2023-07-31T13:23:29;5.17;;;3.10;;
10641;SDS011;5369;49.586;8.646;2023-07-31T13:25:56;5.17;;;2.90;;
10641;SDS011;5369;49.586;8.646;2023-07-31T13:28:22;5.53;;;3.00;;
10641;SDS011;5369;49.586;8.646;2023-07-31T13:30:48;4.67;;;2.90;;
10641;SDS011;5369;49.586;8.646;2023-07-31T13:33:14;6.97;;;2.97;;
10641;SDS011;5369;49.586;8.646;2023-07-31T13:35:40;6.63;;;3.00;;
10641;SDS011;5369;49.586;8.646;2023-07-31T13:38:06;6.20;;;2.80;;
10641;SDS011;5369;49.586;8.646;2023-07-31T13:40:32;3.67;;;2.70;;
10641;SDS011;5369;49.586;8.646;2023-07-31T13:42:58;4.73;;;2.50;;
10641;SDS011;5369;49.586;8.646;2023-07-31T13:45:24;4.00;;;2.80;;
10641;SDS011;5369;49.586;8.646;2023-07-31T13:47:51;4.37;;;2.60;;
10641;SDS011;5369;49.586;8.646;2023-07-31T13:50:17;4.70;;;3.10;;
10641;SDS011;5369;49.586;8.646;2023-07-31T13:52:46;4.20;;;2.77;;
10641;SDS011;5369;49.586;8.646;2023-07-31T13:55:12;7.43;;;2.80;;
10641;SDS011;5369;49.586;8.646;2023-07-31T13:57:38;3.73;;;2.23;;
10641;SDS011;5369;49.586;8.646;2023-07-31T14:00:04;6.43;;;2.83;;
10641;SDS011;5369;49.586;8.646;2023-07-31T14:02:30;6.90;;;2.70;;
10641;SDS011;5369;49.586;8.646;2023-07-31T14:04:57;6.97;;;2.80;;
10641;SDS011;5369;49.586;8.646;2023-07-31T14:07:23;5.50;;;2.87;;
10641;SDS011;5369;49.586;8.646;2023-07-31T14:09:49;5.07;;;2.80;;
10641;SDS011;5369;49.586;8.646;2023-07-31T14:12:15;3.97;;;2.87;;
10641;SDS011;5369;49.586;8.646;2023-07-31T14:14:41;4.83;;;2.70;;
10641;SDS011;5369;49.586;8.646;2023-07-31T14:17:07;5.30;;;3.03;;
10641;SDS011;5369;49.586;8.646;2023-07-31T14:19:33;4.20;;;2.60;;
10641;SDS011;5369;49.586;8.646;2023-07-31T14:21:59;5.60;;;2.90;;
10641;SDS011;5369;49.586;8.646;2023-07-31T14:24:26;4.00;;;2.73;;
10641;SDS011;5369;49.586;8.646;2023-07-31T14:26:52;5.27;;;2.97;;
10641;SDS011;5369;49.586;8.646;2023-07-31T14:29:18;3.23;;;2.47;;
10641;SDS011;5369;49.586;8.646;2023-07-31T14:31:44;5.73;;;2.80;;
10641;SDS011;5369;49.586;8.646;2023-07-31T14:34:10;3.30;;;2.60;;
10641;SDS011;5369;49.586;8.646;2023-07-31T14:36:37;6.03;;;2.70;;
10641;SDS011;5369;49.586;8.646;2023-07-31T14:39:03;4.20;;;2.80;;
10641;SDS011;5369;49.586;8.646;2023-07-31T14:41:29;5.13;;;3.07;;
10641;SDS011;5369;49.586;8.646;2023-07-31T14:43:55;4.20;;;3.07;;
10641;SDS011;5369;49.586;8.646;2023-07-31T14:46:21;5.10;;;2.87;;
10641;SDS011;5369;49.586;8.646;2023-07-31T14:48:47;4.97;;;2.80;;
10641;SDS011;5369;49.586;8.646;2023-07-31T14:51:13;5.33;;;3.10;;
10641;SDS011;5369;49.586;8.646;2023-07-31T14:53:39;8.23;;;3.23;;
10641;SDS011;5369;49.586;8.646;2023-07-31T14:56:06;4.00;;;2.77;;
10641;SDS011;5369;49.586;8.646;2023-07-31T14:58:32;6.17;;;3.10;;
10641;SDS011;5369;49.586;8.646;2023-07-31T15:00:58;5.53;;;2.83;;
10641;SDS011;5369;49.586;8.646;2023-07-31T15:03:24;4.60;;;2.60;;
10641;SDS011;5369;49.586;8.646;2023-07-31T15:05:51;4.47;;;3.00;;
10641;SDS011;5369;49.586;8.646;2023-07-31T15:08:17;4.93;;;3.30;;
10641;SDS011;5369;49.586;8.646;2023-07-31T15:10:44;5.53;;;2.90;;